sensor_id;sensor_type;location;lat;lon;timestamp;P1;durP1;ratioP1;P2;durP2;ratioP2
78296;SDS011;67555;47.660;19.622;2023-04-25T00:01:32;15.05;;;6.65;;
78296;SDS011;67555;47.660;19.622;2023-04-25T00:04:00;11.95;;;5.97;;
78296;SDS011;67555;47.660;19.622;2023-04-25T00:06:26;8.70;;;4.90;;
78296;SDS011;67555;47.660;19.622;2023-04-25T00:08:52;14.40;;;6.18;;
78296;SDS011;67555;47.660;19.622;2023-04-25T00:11:18;13.55;;;6.07;;
78296;SDS011;67555;47.660;19.622;2023-04-25T00:13:44;16.70;;;6.80;;
78296;SDS011;67555;47.660;19.622;2023-04-25T00:16:11;13.38;;;6.10;;
78296;SDS011;67555;47.660;19.622;2023-04-25T00:18:39;11.20;;;5.35;;
78296;SDS011;67555;47.660;19.622;2023-04-25T00:21:05;11.23;;;5.70;;
78296;SDS011;67555;47.660;19.622;2023-04-25T00:23:31;13.82;;;9.95;;
78296;SDS011;67555;47.660;19.622;2023-04-25T00:25:57;10.77;;;5.85;;
78296;SDS011;67555;47.660;19.622;2023-04-25T00:28:22;14.00;;;5.82;;
78296;SDS011;67555;47.660;19.622;2023-04-25T00:30:48;8.85;;;5.15;;
78296;SDS011;67555;47.660;19.622;2023-04-25T00:33:14;12.85;;;6.03;;
78296;SDS011;67555;47.660;19.622;2023-04-25T00:35:40;10.02;;;5.07;;
78296;SDS011;67555;47.660;19.622;2023-04-25T00:38:05;14.20;;;5.60;;
78296;SDS011;67555;47.660;19.622;2023-04-25T00:40:31;11.05;;;5.43;;
78296;SDS011;67555;47.660;19.622;2023-04-25T00:42:57;10.43;;;5.47;;
78296;SDS011;67555;47.660;19.622;2023-04-25T00:45:22;9.68;;;5.07;;
78296;SDS011;67555;47.660;19.622;2023-04-25T00:47:54;11.82;;;5.25;;
78296;SDS011;67555;47.660;19.622;2023-04-25T00:50:20;14.32;;;5.68;;
78296;SDS011;67555;47.660;19.622;2023-04-25T00:52:46;14.82;;;5.97;;
78296;SDS011;67555;47.660;19.622;2023-04-25T00:55:12;10.32;;;5.45;;
78296;SDS011;67555;47.660;19.622;2023-04-25T00:57:38;10.88;;;5.07;;
78296;SDS011;67555;47.660;19.622;2023-04-25T01:00:05;8.95;;;5.05;;
78296;SDS011;67555;47.660;19.622;2023-04-25T01:02:32;10.82;;;5.28;;
78296;SDS011;67555;47.660;19.622;2023-04-25T01:04:58;10.75;;;5.47;;
78296;SDS011;67555;47.660;19.622;2023-04-25T01:07:24;10.48;;;4.97;;
78296;SDS011;67555;47.660;19.622;2023-04-25T01:09:51;11.43;;;5.55;;
78296;SDS011;67555;47.660;19.622;2023-04-25T01:12:17;10.10;;;4.80;;
78296;SDS011;67555;47.660;19.622;2023-04-25T01:14:43;11.82;;;5.65;;
78296;SDS011;67555;47.660;19.622;2023-04-25T01:17:10;12.15;;;5.93;;
78296;SDS011;67555;47.660;19.622;2023-04-25T01:19:36;9.15;;;5.50;;
78296;SDS011;67555;47.660;19.622;2023-04-25T01:22:01;9.57;;;5.25;;
78296;SDS011;67555;47.660;19.622;2023-04-25T01:24:28;12.75;;;6.20;;
78296;SDS011;67555;47.660;19.622;2023-04-25T01:26:55;12.27;;;4.85;;
78296;SDS011;67555;47.660;19.622;2023-04-25T01:29:22;7.80;;;4.07;;
78296;SDS011;67555;47.660;19.622;2023-04-25T01:31:49;10.35;;;5.00;;
78296;SDS011;67555;47.660;19.622;2023-04-25T01:34:17;11.15;;;4.88;;
78296;SDS011;67555;47.660;19.622;2023-04-25T01:36:42;9.68;;;4.95;;
78296;SDS011;67555;47.660;19.622;2023-04-25T01:39:08;8.35;;;3.97;;
78296;SDS011;67555;47.660;19.622;2023-04-25T01:41:34;12.43;;;4.63;;
78296;SDS011;67555;47.660;19.622;2023-04-25T01:44:00;7.40;;;3.90;;
78296;SDS011;67555;47.660;19.622;2023-04-25T01:46:27;9.90;;;4.90;;
78296;SDS011;67555;47.660;19.622;2023-04-25T01:48:52;6.70;;;4.28;;
78296;SDS011;67555;47.660;19.622;2023-04-25T01:51:18;8.18;;;4.05;;
78296;SDS011;67555;47.660;19.622;2023-04-25T01:53:44;14.23;;;4.07;;
78296;SDS011;67555;47.660;19.622;2023-04-25T01:56:10;9.85;;;4.57;;
78296;SDS011;67555;47.660;19.622;2023-04-25T01:58:36;7.90;;;3.92;;
78296;SDS011;67555;47.660;19.622;2023-04-25T02:01:01;5.93;;;3.75;;
78296;SDS011;67555;47.660;19.622;2023-04-25T02:03:29;6.18;;;3.40;;
78296;SDS011;67555;47.660;19.622;2023-04-25T02:05:56;5.55;;;2.95;;
78296;SDS011;67555;47.660;19.622;2023-04-25T02:08:21;3.72;;;2.33;;
78296;SDS011;67555;47.660;19.622;2023-04-25T02:10:47;8.32;;;3.70;;
78296;SDS011;67555;47.660;19.622;2023-04-25T02:13:13;7.63;;;3.58;;
78296;SDS011;67555;47.660;19.622;2023-04-25T02:15:39;6.07;;;3.03;;
78296;SDS011;67555;47.660;19.622;2023-04-25T02:18:04;9.95;;;3.03;;
78296;SDS011;67555;47.660;19.622;2023-04-25T02:20:31;5.72;;;3.17;;
78296;SDS011;67555;47.660;19.622;2023-04-25T02:22:57;7.28;;;3.20;;
78296;SDS011;67555;47.660;19.622;2023-04-25T02:25:23;7.30;;;3.40;;
78296;SDS011;67555;47.660;19.622;2023-04-25T02:27:49;7.30;;;2.75;;
78296;SDS011;67555;47.660;19.622;2023-04-25T02:30:16;7.28;;;3.85;;
78296;SDS011;67555;47.660;19.622;2023-04-25T02:32:42;6.63;;;3.15;;
78296;SDS011;67555;47.660;19.622;2023-04-25T02:35:08;7.10;;;3.35;;
78296;SDS011;67555;47.660;19.622;2023-04-25T02:37:34;11.20;;;4.13;;
78296;SDS011;67555;47.660;19.622;2023-04-25T02:40:01;10.90;;;4.18;;
78296;SDS011;67555;47.660;19.622;2023-04-25T02:42:29;8.60;;;3.65;;
78296;SDS011;67555;47.660;19.622;2023-04-25T02:44:55;7.57;;;3.78;;
78296;SDS011;67555;47.660;19.622;2023-04-25T02:47:21;7.40;;;3.38;;
78296;SDS011;67555;47.660;19.622;2023-04-25T02:49:46;5.13;;;3.55;;
78296;SDS011;67555;47.660;19.622;2023-04-25T02:52:12;6.65;;;3.47;;
78296;SDS011;67555;47.660;19.622;2023-04-25T02:54:38;7.05;;;3.35;;
78296;SDS011;67555;47.660;19.622;2023-04-25T02:57:05;7.15;;;4.03;;
78296;SDS011;67555;47.660;19.622;2023-04-25T02:59:30;12.10;;;3.95;;
78296;SDS011;67555;47.660;19.622;2023-04-25T03:01:56;9.23;;;3.83;;
78296;SDS011;67555;47.660;19.622;2023-04-25T03:04:22;6.82;;;3.33;;
78296;SDS011;67555;47.660;19.622;2023-04-25T03:06:56;5.07;;;3.72;;
78296;SDS011;67555;47.660;19.622;2023-04-25T03:09:22;5.10;;;2.67;;
78296;SDS011;67555;47.660;19.622;2023-04-25T03:11:47;4.97;;;2.47;;
78296;SDS011;67555;47.660;19.622;2023-04-25T03:14:13;4.82;;;3.10;;
78296;SDS011;67555;47.660;19.622;2023-04-25T03:16:39;4.55;;;3.53;;
78296;SDS011;67555;47.660;19.622;2023-04-25T03:19:05;4.43;;;2.88;;
78296;SDS011;67555;47.660;19.622;2023-04-25T03:24:00;4.00;;;2.90;;
78296;SDS011;67555;47.660;19.622;2023-04-25T03:26:27;4.22;;;2.88;;
78296;SDS011;67555;47.660;19.622;2023-04-25T03:28:53;4.88;;;3.13;;
78296;SDS011;67555;47.660;19.622;2023-04-25T03:31:19;4.07;;;2.88;;
78296;SDS011;67555;47.660;19.622;2023-04-25T03:33:45;4.40;;;2.78;;
78296;SDS011;67555;47.660;19.622;2023-04-25T03:36:11;4.47;;;2.47;;
78296;SDS011;67555;47.660;19.622;2023-04-25T03:38:36;5.88;;;2.65;;
78296;SDS011;67555;47.660;19.622;2023-04-25T03:41:02;4.50;;;2.58;;
78296;SDS011;67555;47.660;19.622;2023-04-25T03:43:28;3.55;;;2.05;;
78296;SDS011;67555;47.660;19.622;2023-04-25T03:45:54;6.32;;;3.15;;
78296;SDS011;67555;47.660;19.622;2023-04-25T03:48:19;5.07;;;3.20;;
78296;SDS011;67555;47.660;19.622;2023-04-25T03:50:52;3.28;;;2.40;;
78296;SDS011;67555;47.660;19.622;2023-04-25T03:53:18;1.73;;;1.63;;
78296;SDS011;67555;47.660;19.622;2023-04-25T03:55:44;3.20;;;2.22;;
78296;SDS011;67555;47.660;19.622;2023-04-25T03:58:10;4.43;;;2.35;;
78296;SDS011;67555;47.660;19.622;2023-04-25T04:00:36;3.08;;;2.22;;
78296;SDS011;67555;47.660;19.622;2023-04-25T04:03:02;7.75;;;2.55;;
78296;SDS011;67555;47.660;19.622;2023-04-25T04:05:27;3.28;;;1.75;;
78296;SDS011;67555;47.660;19.622;2023-04-25T04:07:54;3.83;;;2.10;;
78296;SDS011;67555;47.660;19.622;2023-04-25T04:10:20;5.32;;;2.53;;
78296;SDS011;67555;47.660;19.622;2023-04-25T04:12:46;4.00;;;2.15;;
78296;SDS011;67555;47.660;19.622;2023-04-25T04:15:12;3.17;;;2.08;;
78296;SDS011;67555;47.660;19.622;2023-04-25T04:17:37;1.50;;;1.23;;
78296;SDS011;67555;47.660;19.622;2023-04-25T04:20:03;3.45;;;1.80;;
78296;SDS011;67555;47.660;19.622;2023-04-25T04:22:30;1.33;;;1.13;;
78296;SDS011;67555;47.660;19.622;2023-04-25T04:24:56;4.55;;;2.40;;
78296;SDS011;67555;47.660;19.622;2023-04-25T04:27:22;3.53;;;2.40;;
78296;SDS011;67555;47.660;19.622;2023-04-25T04:29:48;3.63;;;2.38;;
78296;SDS011;67555;47.660;19.622;2023-04-25T04:32:15;2.75;;;1.55;;
78296;SDS011;67555;47.660;19.622;2023-04-25T04:34:42;2.55;;;1.85;;
78296;SDS011;67555;47.660;19.622;2023-04-25T04:37:08;2.97;;;1.80;;
78296;SDS011;67555;47.660;19.622;2023-04-25T04:39:35;1.58;;;1.27;;
78296;SDS011;67555;47.660;19.622;2023-04-25T04:42:01;1.40;;;1.08;;
78296;SDS011;67555;47.660;19.622;2023-04-25T04:44:28;3.40;;;1.55;;
78296;SDS011;67555;47.660;19.622;2023-04-25T04:46:57;2.55;;;1.58;;
78296;SDS011;67555;47.660;19.622;2023-04-25T04:49:23;2.90;;;1.65;;
78296;SDS011;67555;47.660;19.622;2023-04-25T04:51:49;2.40;;;1.67;;
78296;SDS011;67555;47.660;19.622;2023-04-25T04:54:15;1.75;;;1.13;;
78296;SDS011;67555;47.660;19.622;2023-04-25T04:56:40;4.88;;;2.55;;
78296;SDS011;67555;47.660;19.622;2023-04-25T04:59:07;1.67;;;1.42;;
78296;SDS011;67555;47.660;19.622;2023-04-25T05:01:32;1.90;;;1.40;;
78296;SDS011;67555;47.660;19.622;2023-04-25T05:04:00;1.77;;;1.08;;
78296;SDS011;67555;47.660;19.622;2023-04-25T05:06:27;1.40;;;1.20;;
78296;SDS011;67555;47.660;19.622;2023-04-25T05:08:57;3.88;;;2.42;;
78296;SDS011;67555;47.660;19.622;2023-04-25T05:11:23;2.10;;;1.90;;
78296;SDS011;67555;47.660;19.622;2023-04-25T05:13:51;3.75;;;2.40;;
78296;SDS011;67555;47.660;19.622;2023-04-25T05:16:17;7.00;;;2.88;;
78296;SDS011;67555;47.660;19.622;2023-04-25T05:18:43;3.53;;;1.42;;
78296;SDS011;67555;47.660;19.622;2023-04-25T05:21:09;0.77;;;0.77;;
78296;SDS011;67555;47.660;19.622;2023-04-25T05:23:35;2.67;;;1.30;;
78296;SDS011;67555;47.660;19.622;2023-04-25T05:26:00;2.17;;;1.08;;
78296;SDS011;67555;47.660;19.622;2023-04-25T05:28:26;6.28;;;1.60;;
78296;SDS011;67555;47.660;19.622;2023-04-25T05:30:52;1.33;;;1.20;;
78296;SDS011;67555;47.660;19.622;2023-04-25T05:33:18;5.00;;;0.85;;
78296;SDS011;67555;47.660;19.622;2023-04-25T05:35:44;5.45;;;2.60;;
78296;SDS011;67555;47.660;19.622;2023-04-25T05:38:10;0.80;;;0.80;;
78296;SDS011;67555;47.660;19.622;2023-04-25T05:40:36;2.70;;;1.42;;
78296;SDS011;67555;47.660;19.622;2023-04-25T05:43:01;0.65;;;0.65;;
78296;SDS011;67555;47.660;19.622;2023-04-25T05:45:27;1.63;;;1.23;;
78296;SDS011;67555;47.660;19.622;2023-04-25T05:47:53;3.20;;;2.15;;
78296;SDS011;67555;47.660;19.622;2023-04-25T05:50:19;1.45;;;1.13;;
78296;SDS011;67555;47.660;19.622;2023-04-25T05:52:45;2.30;;;1.58;;
78296;SDS011;67555;47.660;19.622;2023-04-25T05:55:10;5.93;;;2.25;;
78296;SDS011;67555;47.660;19.622;2023-04-25T05:57:36;5.95;;;3.20;;
78296;SDS011;67555;47.660;19.622;2023-04-25T06:00:02;4.93;;;2.28;;
78296;SDS011;67555;47.660;19.622;2023-04-25T06:02:29;1.92;;;1.40;;
78296;SDS011;67555;47.660;19.622;2023-04-25T06:04:55;3.92;;;2.15;;
78296;SDS011;67555;47.660;19.622;2023-04-25T06:07:20;1.55;;;1.33;;
78296;SDS011;67555;47.660;19.622;2023-04-25T06:09:46;1.55;;;1.17;;
78296;SDS011;67555;47.660;19.622;2023-04-25T06:12:12;6.28;;;2.88;;
78296;SDS011;67555;47.660;19.622;2023-04-25T06:14:38;4.10;;;2.67;;
78296;SDS011;67555;47.660;19.622;2023-04-25T06:17:04;12.95;;;5.18;;
78296;SDS011;67555;47.660;19.622;2023-04-25T06:19:33;8.18;;;3.45;;
78296;SDS011;67555;47.660;19.622;2023-04-25T06:22:00;4.00;;;2.65;;
78296;SDS011;67555;47.660;19.622;2023-04-25T06:24:26;3.03;;;1.70;;
78296;SDS011;67555;47.660;19.622;2023-04-25T06:26:52;13.32;;;5.72;;
78296;SDS011;67555;47.660;19.622;2023-04-25T06:29:18;5.22;;;3.15;;
78296;SDS011;67555;47.660;19.622;2023-04-25T06:31:44;3.78;;;1.60;;
78296;SDS011;67555;47.660;19.622;2023-04-25T06:34:10;1.45;;;1.30;;
78296;SDS011;67555;47.660;19.622;2023-04-25T06:36:35;1.65;;;1.20;;
78296;SDS011;67555;47.660;19.622;2023-04-25T06:39:01;1.17;;;0.77;;
78296;SDS011;67555;47.660;19.622;2023-04-25T06:41:27;5.18;;;1.98;;
78296;SDS011;67555;47.660;19.622;2023-04-25T06:43:53;1.95;;;1.38;;
78296;SDS011;67555;47.660;19.622;2023-04-25T06:46:18;2.13;;;1.10;;
78296;SDS011;67555;47.660;19.622;2023-04-25T06:48:44;4.25;;;2.13;;
78296;SDS011;67555;47.660;19.622;2023-04-25T06:51:10;2.72;;;1.55;;
78296;SDS011;67555;47.660;19.622;2023-04-25T06:53:38;1.33;;;1.05;;
78296;SDS011;67555;47.660;19.622;2023-04-25T06:56:04;5.55;;;1.83;;
78296;SDS011;67555;47.660;19.622;2023-04-25T06:58:30;2.53;;;1.30;;
78296;SDS011;67555;47.660;19.622;2023-04-25T07:00:55;1.88;;;1.63;;
78296;SDS011;67555;47.660;19.622;2023-04-25T07:03:21;3.75;;;1.35;;
78296;SDS011;67555;47.660;19.622;2023-04-25T07:05:47;5.75;;;2.70;;
78296;SDS011;67555;47.660;19.622;2023-04-25T07:08:13;4.43;;;2.30;;
78296;SDS011;67555;47.660;19.622;2023-04-25T07:10:44;11.77;;;4.53;;
78296;SDS011;67555;47.660;19.622;2023-04-25T07:13:11;24.13;;;6.90;;
78296;SDS011;67555;47.660;19.622;2023-04-25T07:15:36;17.83;;;5.80;;
78296;SDS011;67555;47.660;19.622;2023-04-25T07:18:02;10.88;;;4.38;;
78296;SDS011;67555;47.660;19.622;2023-04-25T07:20:28;19.17;;;7.82;;
78296;SDS011;67555;47.660;19.622;2023-04-25T07:22:55;11.00;;;4.85;;
78296;SDS011;67555;47.660;19.622;2023-04-25T07:25:22;13.13;;;5.45;;
78296;SDS011;67555;47.660;19.622;2023-04-25T07:27:48;18.10;;;6.43;;
78296;SDS011;67555;47.660;19.622;2023-04-25T07:30:14;4.18;;;2.65;;
78296;SDS011;67555;47.660;19.622;2023-04-25T07:32:40;10.65;;;3.53;;
78296;SDS011;67555;47.660;19.622;2023-04-25T07:35:05;20.65;;;8.35;;
78296;SDS011;67555;47.660;19.622;2023-04-25T07:37:32;8.55;;;4.32;;
78296;SDS011;67555;47.660;19.622;2023-04-25T07:40:04;12.55;;;4.13;;
78296;SDS011;67555;47.660;19.622;2023-04-25T07:42:30;13.73;;;4.53;;
78296;SDS011;67555;47.660;19.622;2023-04-25T07:44:56;16.95;;;5.32;;
78296;SDS011;67555;47.660;19.622;2023-04-25T07:47:22;8.73;;;3.15;;
78296;SDS011;67555;47.660;19.622;2023-04-25T07:49:48;9.50;;;5.25;;
78296;SDS011;67555;47.660;19.622;2023-04-25T07:52:15;7.63;;;3.75;;
78296;SDS011;67555;47.660;19.622;2023-04-25T07:54:40;17.25;;;5.05;;
78296;SDS011;67555;47.660;19.622;2023-04-25T07:57:06;4.40;;;1.95;;
78296;SDS011;67555;47.660;19.622;2023-04-25T07:59:32;4.50;;;2.53;;
78296;SDS011;67555;47.660;19.622;2023-04-25T08:01:58;6.93;;;3.45;;
78296;SDS011;67555;47.660;19.622;2023-04-25T08:04:24;7.88;;;2.92;;
78296;SDS011;67555;47.660;19.622;2023-04-25T08:06:52;3.78;;;2.15;;
78296;SDS011;67555;47.660;19.622;2023-04-25T08:09:21;7.53;;;3.67;;
78296;SDS011;67555;47.660;19.622;2023-04-25T08:11:47;3.65;;;2.67;;
78296;SDS011;67555;47.660;19.622;2023-04-25T08:14:13;5.90;;;3.42;;
78296;SDS011;67555;47.660;19.622;2023-04-25T08:16:39;2.20;;;1.60;;
78296;SDS011;67555;47.660;19.622;2023-04-25T08:19:05;10.85;;;3.92;;
78296;SDS011;67555;47.660;19.622;2023-04-25T08:21:31;7.38;;;2.55;;
78296;SDS011;67555;47.660;19.622;2023-04-25T08:23:57;1.50;;;1.40;;
78296;SDS011;67555;47.660;19.622;2023-04-25T08:26:25;5.47;;;2.42;;
78296;SDS011;67555;47.660;19.622;2023-04-25T08:28:50;4.10;;;3.03;;
78296;SDS011;67555;47.660;19.622;2023-04-25T08:31:16;4.55;;;2.85;;
78296;SDS011;67555;47.660;19.622;2023-04-25T08:33:42;9.35;;;5.32;;
78296;SDS011;67555;47.660;19.622;2023-04-25T08:36:09;8.02;;;4.32;;
78296;SDS011;67555;47.660;19.622;2023-04-25T08:38:35;9.82;;;5.03;;
78296;SDS011;67555;47.660;19.622;2023-04-25T08:41:01;5.78;;;2.40;;
78296;SDS011;67555;47.660;19.622;2023-04-25T08:43:27;4.57;;;2.67;;
78296;SDS011;67555;47.660;19.622;2023-04-25T08:45:57;3.53;;;2.70;;
78296;SDS011;67555;47.660;19.622;2023-04-25T08:48:24;5.60;;;1.60;;
78296;SDS011;67555;47.660;19.622;2023-04-25T08:50:52;2.80;;;1.90;;
78296;SDS011;67555;47.660;19.622;2023-04-25T08:53:21;1.20;;;1.10;;
78296;SDS011;67555;47.660;19.622;2023-04-25T08:55:51;4.22;;;2.35;;
78296;SDS011;67555;47.660;19.622;2023-04-25T08:58:20;3.13;;;2.10;;
78296;SDS011;67555;47.660;19.622;2023-04-25T09:00:46;3.33;;;2.40;;
78296;SDS011;67555;47.660;19.622;2023-04-25T09:03:14;2.15;;;1.70;;
78296;SDS011;67555;47.660;19.622;2023-04-25T09:05:40;5.90;;;1.48;;
78296;SDS011;67555;47.660;19.622;2023-04-25T09:08:06;2.63;;;1.80;;
78296;SDS011;67555;47.660;19.622;2023-04-25T09:10:32;3.63;;;2.28;;
78296;SDS011;67555;47.660;19.622;2023-04-25T09:15:47;5.63;;;4.43;;
78296;SDS011;67555;47.660;19.622;2023-04-25T09:18:14;6.20;;;2.50;;
78296;SDS011;67555;47.660;19.622;2023-04-25T09:20:51;3.75;;;3.03;;
78296;SDS011;67555;47.660;19.622;2023-04-25T09:23:18;4.68;;;2.38;;
78296;SDS011;67555;47.660;19.622;2023-04-25T09:25:47;3.03;;;2.20;;
78296;SDS011;67555;47.660;19.622;2023-04-25T09:28:16;4.45;;;1.98;;
78296;SDS011;67555;47.660;19.622;2023-04-25T09:30:54;3.25;;;2.60;;
78296;SDS011;67555;47.660;19.622;2023-04-25T09:33:23;4.47;;;2.47;;
78296;SDS011;67555;47.660;19.622;2023-04-25T09:35:53;3.42;;;1.98;;
78296;SDS011;67555;47.660;19.622;2023-04-25T09:38:21;3.65;;;2.45;;
78296;SDS011;67555;47.660;19.622;2023-04-25T09:40:47;1.88;;;1.75;;
78296;SDS011;67555;47.660;19.622;2023-04-25T09:43:18;1.63;;;1.35;;
78296;SDS011;67555;47.660;19.622;2023-04-25T09:45:46;2.60;;;1.55;;
78296;SDS011;67555;47.660;19.622;2023-04-25T09:48:16;2.35;;;1.60;;
78296;SDS011;67555;47.660;19.622;2023-04-25T09:51:03;2.88;;;1.67;;
78296;SDS011;67555;47.660;19.622;2023-04-25T09:53:36;0.98;;;0.80;;
78296;SDS011;67555;47.660;19.622;2023-04-25T09:56:04;1.60;;;1.48;;
78296;SDS011;67555;47.660;19.622;2023-04-25T09:58:32;1.05;;;0.95;;
78296;SDS011;67555;47.660;19.622;2023-04-25T10:01:02;1.02;;;0.80;;
78296;SDS011;67555;47.660;19.622;2023-04-25T10:03:31;0.80;;;0.77;;
78296;SDS011;67555;47.660;19.622;2023-04-25T10:06:01;0.98;;;0.77;;
78296;SDS011;67555;47.660;19.622;2023-04-25T10:08:35;1.00;;;0.90;;
78296;SDS011;67555;47.660;19.622;2023-04-25T10:11:03;1.48;;;1.13;;
78296;SDS011;67555;47.660;19.622;2023-04-25T10:13:32;1.00;;;0.88;;
78296;SDS011;67555;47.660;19.622;2023-04-25T10:15:59;1.65;;;0.82;;
78296;SDS011;67555;47.660;19.622;2023-04-25T10:18:26;1.63;;;1.02;;
78296;SDS011;67555;47.660;19.622;2023-04-25T10:20:54;3.10;;;1.17;;
78296;SDS011;67555;47.660;19.622;2023-04-25T10:23:21;1.23;;;1.13;;
78296;SDS011;67555;47.660;19.622;2023-04-25T10:25:47;1.23;;;0.95;;
78296;SDS011;67555;47.660;19.622;2023-04-25T10:28:14;2.17;;;0.77;;
78296;SDS011;67555;47.660;19.622;2023-04-25T10:30:56;0.73;;;0.63;;
78296;SDS011;67555;47.660;19.622;2023-04-25T10:33:33;0.75;;;0.75;;
78296;SDS011;67555;47.660;19.622;2023-04-25T10:36:10;1.50;;;0.90;;
78296;SDS011;67555;47.660;19.622;2023-04-25T10:38:42;1.08;;;0.73;;
78296;SDS011;67555;47.660;19.622;2023-04-25T10:41:09;0.77;;;0.60;;
78296;SDS011;67555;47.660;19.622;2023-04-25T10:46:12;0.90;;;0.90;;
78296;SDS011;67555;47.660;19.622;2023-04-25T10:48:45;0.43;;;0.43;;
78296;SDS011;67555;47.660;19.622;2023-04-25T10:51:26;0.90;;;0.60;;
78296;SDS011;67555;47.660;19.622;2023-04-25T10:54:00;1.38;;;0.80;;
78296;SDS011;67555;47.660;19.622;2023-04-25T10:56:30;0.55;;;0.55;;
78296;SDS011;67555;47.660;19.622;2023-04-25T11:04:25;2.20;;;1.00;;
78296;SDS011;67555;47.660;19.622;2023-04-25T11:09:25;0.60;;;0.50;;
78296;SDS011;67555;47.660;19.622;2023-04-25T11:11:55;0.70;;;0.70;;
78296;SDS011;67555;47.660;19.622;2023-04-25T11:14:21;0.55;;;0.55;;
78296;SDS011;67555;47.660;19.622;2023-04-25T11:16:52;0.68;;;0.38;;
78296;SDS011;67555;47.660;19.622;2023-04-25T11:19:22;0.35;;;0.35;;
78296;SDS011;67555;47.660;19.622;2023-04-25T11:21:48;1.05;;;0.52;;
78296;SDS011;67555;47.660;19.622;2023-04-25T11:24:17;0.63;;;0.63;;
78296;SDS011;67555;47.660;19.622;2023-04-25T11:26:46;0.70;;;0.30;;
78296;SDS011;67555;47.660;19.622;2023-04-25T11:29:12;0.40;;;0.30;;
78296;SDS011;67555;47.660;19.622;2023-04-25T11:31:38;0.93;;;0.30;;
78296;SDS011;67555;47.660;19.622;2023-04-25T11:34:07;0.03;;;0.03;;
78296;SDS011;67555;47.660;19.622;2023-04-25T11:36:33;2.22;;;1.00;;
78296;SDS011;67555;47.660;19.622;2023-04-25T11:38:59;0.30;;;0.30;;
78296;SDS011;67555;47.660;19.622;2023-04-25T11:41:26;0.40;;;0.40;;
78296;SDS011;67555;47.660;19.622;2023-04-25T11:43:52;0.15;;;0.13;;
78296;SDS011;67555;47.660;19.622;2023-04-25T11:46:19;0.40;;;0.40;;
78296;SDS011;67555;47.660;19.622;2023-04-25T11:48:45;0.45;;;0.40;;
78296;SDS011;67555;47.660;19.622;2023-04-25T11:51:11;0.15;;;0.15;;
78296;SDS011;67555;47.660;19.622;2023-04-25T11:53:38;0.75;;;0.75;;
78296;SDS011;67555;47.660;19.622;2023-04-25T11:56:10;0.47;;;0.47;;
78296;SDS011;67555;47.660;19.622;2023-04-25T12:01:32;0.70;;;0.70;;
78296;SDS011;67555;47.660;19.622;2023-04-25T12:04:09;0.85;;;0.63;;
78296;SDS011;67555;47.660;19.622;2023-04-25T12:06:41;0.20;;;0.20;;
78296;SDS011;67555;47.660;19.622;2023-04-25T12:09:09;0.50;;;0.50;;
78296;SDS011;67555;47.660;19.622;2023-04-25T12:11:42;0.50;;;0.50;;
78296;SDS011;67555;47.660;19.622;2023-04-25T12:14:09;0.60;;;0.43;;
78296;SDS011;67555;47.660;19.622;2023-04-25T12:16:46;1.02;;;0.65;;
78296;SDS011;67555;47.660;19.622;2023-04-25T12:19:14;0.60;;;0.60;;
78296;SDS011;67555;47.660;19.622;2023-04-25T12:21:41;0.30;;;0.30;;
78296;SDS011;67555;47.660;19.622;2023-04-25T12:24:16;0.73;;;0.73;;
78296;SDS011;67555;47.660;19.622;2023-04-25T12:26:59;1.02;;;0.63;;
78296;SDS011;67555;47.660;19.622;2023-04-25T12:29:27;0.80;;;0.63;;
78296;SDS011;67555;47.660;19.622;2023-04-25T12:31:54;0.63;;;0.63;;
78296;SDS011;67555;47.660;19.622;2023-04-25T12:34:21;0.73;;;0.50;;
78296;SDS011;67555;47.660;19.622;2023-04-25T12:36:48;0.35;;;0.35;;
78296;SDS011;67555;47.660;19.622;2023-04-25T12:39:16;0.60;;;0.60;;
78296;SDS011;67555;47.660;19.622;2023-04-25T12:41:41;0.65;;;0.50;;
78296;SDS011;67555;47.660;19.622;2023-04-25T12:44:08;1.08;;;0.68;;
78296;SDS011;67555;47.660;19.622;2023-04-25T12:46:33;0.45;;;0.30;;
78296;SDS011;67555;47.660;19.622;2023-04-25T12:48:59;0.35;;;0.35;;
78296;SDS011;67555;47.660;19.622;2023-04-25T12:51:25;0.63;;;0.60;;
78296;SDS011;67555;47.660;19.622;2023-04-25T12:53:52;0.55;;;0.55;;
78296;SDS011;67555;47.660;19.622;2023-04-25T12:56:18;0.60;;;0.60;;
78296;SDS011;67555;47.660;19.622;2023-04-25T12:58:44;0.57;;;0.30;;
78296;SDS011;67555;47.660;19.622;2023-04-25T13:01:10;0.25;;;0.25;;
78296;SDS011;67555;47.660;19.622;2023-04-25T13:03:37;0.45;;;0.30;;
78296;SDS011;67555;47.660;19.622;2023-04-25T13:06:03;0.52;;;0.52;;
78296;SDS011;67555;47.660;19.622;2023-04-25T13:08:29;2.83;;;1.30;;
78296;SDS011;67555;47.660;19.622;2023-04-25T13:10:55;4.25;;;2.15;;
78296;SDS011;67555;47.660;19.622;2023-04-25T13:13:21;1.23;;;1.13;;
78296;SDS011;67555;47.660;19.622;2023-04-25T13:15:47;1.75;;;1.42;;
78296;SDS011;67555;47.660;19.622;2023-04-25T13:18:13;0.63;;;0.63;;
78296;SDS011;67555;47.660;19.622;2023-04-25T13:20:40;0.75;;;0.75;;
78296;SDS011;67555;47.660;19.622;2023-04-25T13:23:06;1.13;;;0.90;;
78296;SDS011;67555;47.660;19.622;2023-04-25T13:25:32;1.88;;;1.00;;
78296;SDS011;67555;47.660;19.622;2023-04-25T13:27:58;0.80;;;0.80;;
78296;SDS011;67555;47.660;19.622;2023-04-25T13:30:24;1.02;;;0.85;;
78296;SDS011;67555;47.660;19.622;2023-04-25T13:32:50;2.22;;;1.15;;
78296;SDS011;67555;47.660;19.622;2023-04-25T13:35:16;2.13;;;0.82;;
78296;SDS011;67555;47.660;19.622;2023-04-25T13:37:42;3.42;;;3.13;;
78296;SDS011;67555;47.660;19.622;2023-04-25T13:40:08;2.78;;;1.50;;
78296;SDS011;67555;47.660;19.622;2023-04-25T13:42:36;2.10;;;1.15;;
78296;SDS011;67555;47.660;19.622;2023-04-25T13:45:03;1.10;;;0.77;;
78296;SDS011;67555;47.660;19.622;2023-04-25T13:47:29;1.33;;;1.02;;
78296;SDS011;67555;47.660;19.622;2023-04-25T13:49:56;1.48;;;1.02;;
78296;SDS011;67555;47.660;19.622;2023-04-25T13:52:22;1.40;;;1.00;;
78296;SDS011;67555;47.660;19.622;2023-04-25T13:54:50;1.95;;;1.30;;
78296;SDS011;67555;47.660;19.622;2023-04-25T13:57:16;2.22;;;1.58;;
78296;SDS011;67555;47.660;19.622;2023-04-25T13:59:42;0.50;;;0.50;;
78296;SDS011;67555;47.660;19.622;2023-04-25T14:02:09;0.60;;;0.60;;
78296;SDS011;67555;47.660;19.622;2023-04-25T14:04:35;1.70;;;1.17;;
78296;SDS011;67555;47.660;19.622;2023-04-25T14:07:02;3.17;;;1.40;;
78296;SDS011;67555;47.660;19.622;2023-04-25T14:09:28;2.22;;;1.48;;
78296;SDS011;67555;47.660;19.622;2023-04-25T14:11:54;4.35;;;1.33;;
78296;SDS011;67555;47.660;19.622;2023-04-25T14:14:21;1.55;;;1.23;;
78296;SDS011;67555;47.660;19.622;2023-04-25T14:16:48;1.20;;;1.00;;
78296;SDS011;67555;47.660;19.622;2023-04-25T14:19:15;3.10;;;1.88;;
78296;SDS011;67555;47.660;19.622;2023-04-25T14:21:41;1.27;;;1.15;;
78296;SDS011;67555;47.660;19.622;2023-04-25T14:24:08;2.17;;;1.45;;
78296;SDS011;67555;47.660;19.622;2023-04-25T14:26:34;1.05;;;0.95;;
78296;SDS011;67555;47.660;19.622;2023-04-25T14:29:01;8.02;;;1.27;;
78296;SDS011;67555;47.660;19.622;2023-04-25T14:31:28;1.45;;;1.27;;
78296;SDS011;67555;47.660;19.622;2023-04-25T14:33:54;1.90;;;1.60;;
78296;SDS011;67555;47.660;19.622;2023-04-25T14:36:20;1.77;;;1.15;;
78296;SDS011;67555;47.660;19.622;2023-04-25T14:38:46;6.90;;;1.67;;
78296;SDS011;67555;47.660;19.622;2023-04-25T14:41:12;4.28;;;1.50;;
78296;SDS011;67555;47.660;19.622;2023-04-25T14:43:37;2.28;;;1.65;;
78296;SDS011;67555;47.660;19.622;2023-04-25T14:46:05;1.45;;;1.10;;
78296;SDS011;67555;47.660;19.622;2023-04-25T14:48:32;1.70;;;1.33;;
78296;SDS011;67555;47.660;19.622;2023-04-25T14:50:58;2.08;;;0.73;;